Time;durP1;ratioP1;P1;durP2;ratioP2;P2;SDS_P1;SDS_P2;PMS_P1;PMS_P2;Temp;Humidity;BMP_temperature;BMP_pressure;BME280_temperature;BME280_humidity;BME280_pressure;Samples;Min_cycle;Max_cycle;Signal;HPM_P1;HPM_P2
2023/09/26 00:00:14;;;;;;;8.13;2.58;;;;;;;19.58;96.12;102149.34;5079518;28;20024;-71
2023/09/26 00:02:39;;;;;;;5.85;2.47;;;;;;;19.54;96.19;102148.13;5080322;28;20094;-71
2023/09/26 00:05:08;;;;;;;6.05;2.58;;;;;;;19.51;96.13;102157.59;5097416;28;20507;-71
2023/09/26 00:07:34;;;;;;;7.82;2.88;;;;;;;19.51;95.98;102149.41;5098361;28;20024;-71
2023/09/26 00:10:00;;;;;;;8.10;2.65;;;;;;;19.47;96.50;102151.75;5080411;28;20536;-71
2023/09/26 00:12:26;;;;;;;8.55;2.72;;;;;;;19.30;96.72;102142.47;5097932;28;20054;-71
2023/09/26 00:14:51;;;;;;;6.45;2.63;;;;;;;19.29;96.62;102137.25;5079978;28;20028;-72
2023/09/26 00:17:17;;;;;;;9.25;2.60;;;;;;;19.41;96.66;102162.75;5098324;28;20167;-71
2023/09/26 00:19:43;;;;;;;8.27;2.80;;;;;;;19.44;96.42;102163.13;5063451;28;20028;-71
2023/09/26 00:22:08;;;;;;;9.18;2.70;;;;;;;19.47;96.31;102157.22;5082003;28;20456;-72
2023/09/26 00:24:34;;;;;;;8.82;2.72;;;;;;;19.47;96.56;102162.69;5066856;28;20124;-71
2023/09/26 00:27:00;;;;;;;7.18;2.45;;;;;;;19.52;96.13;102156.53;5095331;28;20035;-71
2023/09/26 00:29:25;;;;;;;8.57;2.97;;;;;;;19.45;96.78;102150.31;5097958;28;20020;-71
2023/09/26 00:31:53;;;;;;;8.93;2.80;;;;;;;19.45;96.89;102150.31;5082209;28;20028;-71
2023/09/26 00:34:19;;;;;;;10.13;2.90;;;;;;;19.49;96.76;102151.50;5101394;28;20036;-71
2023/09/26 00:36:45;;;;;;;8.90;2.80;;;;;;;19.53;96.46;102160.09;5049761;28;20073;-71
2023/09/26 00:39:10;;;;;;;11.25;3.05;;;;;;;19.50;96.62;102153.19;5083381;28;20028;-72
2023/09/26 00:41:36;;;;;;;8.85;2.58;;;;;;;19.45;97.03;102167.50;5082544;28;20584;-72
2023/09/26 00:44:01;;;;;;;6.95;2.83;;;;;;;19.34;97.18;102146.44;5081091;28;20063;-71
2023/09/26 00:46:28;;;;;;;9.90;2.63;;;;;;;19.42;97.32;102161.66;5081334;28;20027;-72
2023/09/26 00:48:53;;;;;;;12.10;3.38;;;;;;;19.46;97.39;102171.91;5083671;28;20028;-72
2023/09/26 00:51:19;;;;;;;5.80;2.55;;;;;;;19.46;97.58;102165.63;5082930;28;20131;-72
2023/09/26 00:53:44;;;;;;;8.75;2.65;;;;;;;19.45;97.57;102164.78;5100599;28;20090;-72
2023/09/26 00:56:10;;;;;;;9.32;2.90;;;;;;;19.49;97.58;102167.91;5082680;28;20070;-71
2023/09/26 00:58:36;;;;;;;8.70;3.20;;;;;;;19.38;97.81;102149.53;5082398;28;20024;-71
2023/09/26 01:01:02;;;;;;;7.55;2.83;;;;;;;19.51;97.63;102165.78;5066078;28;20552;-71
2023/09/26 01:03:28;;;;;;;6.28;2.55;;;;;;;19.49;97.95;102154.25;5100791;28;20023;-71
2023/09/26 01:05:54;;;;;;;8.95;2.60;;;;;;;19.44;98.14;102163.13;5049610;28;20056;-72
2023/09/26 01:08:21;;;;;;;10.73;3.22;;;;;;;19.49;98.08;102162.44;5082308;28;20127;-72
2023/09/26 01:10:46;;;;;;;6.80;2.83;;;;;;;19.46;98.08;102154.69;5100868;28;20067;-71
2023/09/26 01:13:12;;;;;;;10.55;3.10;;;;;;;19.39;98.87;102152.03;5082742;28;20024;-71
2023/09/26 01:15:40;;;;;;;10.18;2.97;;;;;;;19.44;98.77;102154.94;5100861;28;20039;-72
2023/09/26 01:18:11;;;;;;;12.25;3.15;;;;;;;19.21;98.72;102116.53;5100668;28;20016;-71
2023/09/26 01:20:44;;;;;;;8.95;3.17;;;;;;;19.48;98.79;102166.22;5099202;28;20436;-72
2023/09/26 01:23:12;;;;;;;12.32;2.83;;;;;;;19.45;98.64;102159.31;5094240;28;20028;-71
2023/09/26 01:25:38;;;;;;;10.23;2.90;;;;;;;19.45;98.61;102159.31;5081393;28;20036;-71
2023/09/26 01:28:08;;;;;;;6.70;2.70;;;;;;;19.43;98.57;102157.88;5064822;28;20065;-71
2023/09/26 01:30:38;;;;;;;8.77;3.00;;;;;;;19.40;98.93;102166.50;5082715;28;20090;-72
2023/09/26 01:33:04;;;;;;;9.88;3.03;;;;;;;19.25;99.05;102158.69;5099734;28;20742;-71
2023/09/26 01:35:30;;;;;;;11.18;3.10;;;;;;;19.15;100.00;102159.19;5065408;28;20028;-72
2023/09/26 01:37:56;;;;;;;9.55;3.60;;;;;;;19.14;100.00;102162.97;5079718;28;20107;-71
2023/09/26 01:40:21;;;;;;;13.15;3.60;;;;;;;19.12;99.89;102156.91;5077611;28;20107;-72
2023/09/26 01:42:47;;;;;;;12.00;3.08;;;;;;;19.08;99.84;102177.50;5084489;28;20016;-71
2023/09/26 01:45:12;;;;;;;7.82;3.05;;;;;;;18.96;99.92;102163.75;5090051;28;20051;-72
2023/09/26 01:47:49;;;;;;;8.02;2.97;;;;;;;19.04;100.00;102164.53;5103853;28;20032;-71
2023/09/26 01:50:16;;;;;;;10.95;3.20;;;;;;;19.02;100.00;102172.94;5080902;28;20028;-72
2023/09/26 01:52:42;;;;;;;9.75;3.40;;;;;;;18.92;100.00;102169.88;5075175;28;20112;-71
2023/09/26 01:55:13;;;;;;;9.13;3.00;;;;;;;18.87;100.00;102159.63;5060161;28;20398;-71
2023/09/26 01:57:38;;;;;;;11.57;3.50;;;;;;;18.92;100.00;102172.59;5077325;28;20016;-72
2023/09/26 02:00:11;;;;;;;7.60;3.22;;;;;;;18.88;100.00;102174.13;5061812;28;20034;-71
2023/09/26 02:02:42;;;;;;;11.40;3.28;;;;;;;18.88;100.00;102180.41;5065271;28;20028;-72
2023/09/26 02:05:09;;;;;;;12.25;3.15;;;;;;;18.70;100.00;102153.00;5064484;28;20047;-71
2023/09/26 02:07:35;;;;;;;9.02;3.60;;;;;;;18.86;100.00;102176.22;5099448;28;20028;-71
2023/09/26 02:10:02;;;;;;;8.60;3.58;;;;;;;18.78;100.00;102161.78;5081896;28;20437;-71
2023/09/26 02:12:27;;;;;;;9.50;3.45;;;;;;;18.81;100.00;102171.44;5081410;28;20024;-72
2023/09/26 02:14:52;;;;;;;9.32;3.25;;;;;;;18.80;100.00;102168.91;5078553;28;20031;-72
2023/09/26 02:17:18;;;;;;;11.38;3.72;;;;;;;18.75;100.00;102167.69;5059464;28;20268;-72
2023/09/26 02:19:44;;;;;;;12.23;3.63;;;;;;;18.75;100.00;102177.75;5097278;28;20035;-71
2023/09/26 02:22:09;;;;;;;9.02;3.40;;;;;;;18.76;100.00;102179.41;5098843;28;20028;-71
2023/09/26 02:24:34;;;;;;;9.32;3.25;;;;;;;18.75;100.00;102173.13;5064272;28;20478;-72
2023/09/26 02:27:00;;;;;;;8.23;3.40;;;;;;;18.76;100.00;102168.50;5081043;28;20027;-72
2023/09/26 02:29:29;;;;;;;7.75;3.25;;;;;;;18.78;100.00;102167.25;5081095;28;20363;-72
2023/09/26 02:31:55;;;;;;;10.85;3.55;;;;;;;18.66;100.00;102152.59;5099264;28;20049;-71
2023/09/26 02:34:22;;;;;;;10.57;3.50;;;;;;;18.73;100.00;102164.34;5077780;28;20033;-71
2023/09/26 02:36:48;;;;;;;9.35;3.45;;;;;;;18.72;100.00;102165.41;5095685;28;20051;-72
2023/09/26 02:39:13;;;;;;;8.40;3.40;;;;;;;18.80;100.00;102166.19;5068625;28;20020;-71
2023/09/26 02:41:39;;;;;;;10.60;4.32;;;;;;;18.79;100.00;102173.53;5096856;28;20032;-72
2023/09/26 02:44:06;;;;;;;7.97;3.30;;;;;;;18.80;100.00;102168.91;5062029;28;20114;-71
2023/09/26 02:46:32;;;;;;;10.00;3.35;;;;;;;18.74;100.00;102149.66;5078824;28;20031;-71
2023/09/26 02:48:58;;;;;;;11.05;3.47;;;;;;;18.76;100.00;102160.34;5098341;28;20038;-72
2023/09/26 02:51:23;;;;;;;9.48;3.42;;;;;;;18.75;100.00;102156.78;5063282;28;20032;-72
2023/09/26 02:53:49;;;;;;;10.95;3.95;;;;;;;18.64;100.00;102154.75;5103414;28;20028;-72
2023/09/26 02:56:14;;;;;;;7.80;3.25;;;;;;;18.68;100.00;102155.97;5085696;28;20032;-72
2023/09/26 02:58:39;;;;;;;11.70;3.38;;;;;;;18.74;100.00;102159.72;5064920;28;20043;-72
2023/09/26 03:01:05;;;;;;;8.63;3.40;;;;;;;18.82;100.00;102175.81;5099279;28;20032;-72
2023/09/26 03:03:30;;;;;;;11.40;3.75;;;;;;;18.85;100.00;102185.47;5064961;28;20032;-72
2023/09/26 03:05:56;;;;;;;10.07;3.50;;;;;;;18.91;100.00;102192.75;5080851;28;20055;-72
2023/09/26 03:08:21;;;;;;;11.43;3.42;;;;;;;18.82;100.00;102166.81;5098081;28;20031;-72
2023/09/26 03:10:47;;;;;;;9.75;3.28;;;;;;;18.96;100.00;102190.19;5099576;28;20024;-72
2023/09/26 03:13:13;;;;;;;10.15;3.10;;;;;;;18.99;100.00;102187.03;5098917;28;20050;-72
2023/09/26 03:15:38;;;;;;;6.13;3.13;;;;;;;18.96;100.00;102173.81;5055953;28;20028;-72
2023/09/26 03:18:04;;;;;;;15.63;3.38;;;;;;;18.93;100.00;102171.53;5073319;28;20036;-72
2023/09/26 03:20:30;;;;;;;8.95;3.25;;;;;;;19.00;100.00;102164.13;5056330;28;20139;-72
2023/09/26 03:22:55;;;;;;;8.15;3.25;;;;;;;18.99;100.00;102170.66;5076792;28;20491;-72
2023/09/26 03:25:20;;;;;;;11.20;3.53;;;;;;;19.00;100.00;102170.41;5058009;28;20120;-72
2023/09/26 03:27:47;;;;;;;6.20;2.78;;;;;;;18.96;100.00;102157.47;5052426;28;20024;-72
2023/09/26 03:30:15;;;;;;;8.95;3.35;;;;;;;19.02;100.00;102165.59;5054696;28;20044;-72
2023/09/26 03:32:40;;;;;;;10.38;3.63;;;;;;;19.04;100.00;102169.97;5075450;28;20032;-72
2023/09/26 03:35:06;;;;;;;8.02;3.33;;;;;;;19.05;100.00;102171.66;5057855;28;20024;-71
2023/09/26 03:37:32;;;;;;;8.80;3.42;;;;;;;19.04;100.00;102169.97;5061662;28;20020;-71
2023/09/26 03:39:58;;;;;;;8.15;3.00;;;;;;;18.70;100.00;102120.28;5066422;28;20079;-72
2023/09/26 03:42:24;;;;;;;10.85;3.80;;;;;;;18.98;100.00;102175.28;5076670;28;20020;-72
2023/09/26 03:44:50;;;;;;;11.45;3.30;;;;;;;18.95;100.00;102169.44;5058697;28;20025;-72
2023/09/26 03:47:16;;;;;;;8.30;3.47;;;;;;;18.90;100.00;102166.53;5056698;28;20044;-72
2023/09/26 03:49:41;;;;;;;7.90;3.55;;;;;;;18.88;100.00;102166.75;5055690;28;20085;-72
2023/09/26 03:52:06;;;;;;;9.32;3.40;;;;;;;18.83;100.00;102157.56;5075864;28;20033;-72
2023/09/26 03:54:34;;;;;;;13.70;3.95;;;;;;;18.79;100.00;102151.72;5059955;28;20025;-71
2023/09/26 03:57:01;;;;;;;8.93;3.70;;;;;;;18.79;100.00;102162.63;5045902;28;20471;-71
2023/09/26 03:59:26;;;;;;;10.02;3.40;;;;;;;18.69;100.00;102144.00;5082080;28;20482;-71
2023/09/26 04:01:52;;;;;;;11.30;3.22;;;;;;;18.78;100.00;102160.97;5031235;28;20029;-71
2023/09/26 04:04:18;;;;;;;8.90;3.22;;;;;;;18.75;100.00;102164.13;5081722;28;20036;-71
2023/09/26 04:06:43;;;;;;;11.02;3.78;;;;;;;18.67;100.00;102151.53;5081745;28;20039;-70
2023/09/26 04:09:09;;;;;;;9.82;3.22;;;;;;;18.63;100.00;102153.03;5046869;28;20043;-69
2023/09/26 04:11:35;;;;;;;14.65;3.33;;;;;;;18.54;100.00;102143.44;5082121;28;20027;-72
2023/09/26 04:14:00;;;;;;;9.93;3.70;;;;;;;18.54;100.00;102149.75;5063990;28;20028;-72
2023/09/26 04:16:25;;;;;;;12.88;3.72;;;;;;;18.60;100.00;102155.38;5062853;28;20526;-72
2023/09/26 04:18:51;;;;;;;6.93;3.33;;;;;;;18.59;100.00;102162.72;5063650;28;20032;-73
2023/09/26 04:21:16;;;;;;;10.55;3.40;;;;;;;18.59;100.00;102151.00;5062895;28;20035;-72
2023/09/26 04:23:42;;;;;;;10.52;3.63;;;;;;;18.55;100.00;102156.03;5081041;28;20024;-73
2023/09/26 04:26:15;;;;;;;11.27;4.00;;;;;;;18.43;100.00;102142.28;5061867;28;20044;-72
2023/09/26 04:28:45;;;;;;;13.90;3.47;;;;;;;18.49;100.00;102154.19;5096182;28;20017;-71
2023/09/26 04:31:16;;;;;;;11.88;3.92;;;;;;;18.41;100.00;102149.84;5046104;28;20491;-72
2023/09/26 04:33:42;;;;;;;9.07;3.70;;;;;;;18.43;100.00;102153.16;5080745;28;20040;-71
2023/09/26 04:36:08;;;;;;;9.70;3.97;;;;;;;18.40;100.00;102153.59;5078422;28;20119;-71
2023/09/26 04:38:33;;;;;;;17.42;4.32;;;;;;;18.36;100.00;102146.09;5080830;28;20472;-71
2023/09/26 04:41:03;;;;;;;9.20;4.30;;;;;;;18.32;100.00;102151.16;5062837;28;20051;-72
2023/09/26 04:43:30;;;;;;;7.43;4.03;;;;;;;18.31;100.00;102139.41;5079347;28;20020;-71
2023/09/26 04:45:56;;;;;;;11.30;4.30;;;;;;;18.36;100.00;102146.09;5060965;28;20036;-71
2023/09/26 04:48:21;;;;;;;10.25;4.50;;;;;;;18.26;100.00;102135.66;5059695;28;20094;-71
2023/09/26 04:50:48;;;;;;;8.88;4.32;;;;;;;18.33;100.00;102150.09;5078861;28;20028;-71
2023/09/26 04:53:13;;;;;;;13.13;4.13;;;;;;;18.33;100.00;102152.81;5062218;28;20384;-72
2023/09/26 04:55:39;;;;;;;8.18;4.00;;;;;;;18.31;100.00;102153.03;5062561;28;20034;-71
2023/09/26 04:58:04;;;;;;;10.02;4.03;;;;;;;18.33;100.00;102149.25;5079165;28;20360;-71
2023/09/26 05:00:31;;;;;;;9.77;4.20;;;;;;;18.31;100.00;102154.94;5063347;28;20621;-72
2023/09/26 05:02:57;;;;;;;11.27;4.70;;;;;;;18.31;100.00;102158.50;5060294;28;20368;-72
2023/09/26 05:05:23;;;;;;;10.82;4.50;;;;;;;18.34;100.00;102153.63;5056414;28;20499;-72
2023/09/26 05:07:49;;;;;;;8.82;4.65;;;;;;;18.23;100.00;102133.38;5080511;28;20028;-71
2023/09/26 05:10:16;;;;;;;13.13;4.60;;;;;;;18.38;100.00;102152.19;5080954;28;20029;-72
2023/09/26 05:12:42;;;;;;;12.43;4.43;;;;;;;18.42;100.00;102150.69;5083905;28;20044;-71
2023/09/26 05:15:16;;;;;;;11.27;4.30;;;;;;;18.46;100.00;102151.91;5067488;28;20024;-72
2023/09/26 05:17:49;;;;;;;8.25;4.43;;;;;;;18.49;100.00;102157.75;5084751;28;20335;-71
2023/09/26 05:20:15;;;;;;;15.43;4.70;;;;;;;18.56;100.00;102160.44;5084901;28;20598;-72
2023/09/26 05:22:43;;;;;;;8.73;4.22;;;;;;;18.58;100.00;102162.97;5067510;28;20044;-73
2023/09/26 05:25:09;;;;;;;11.02;4.00;;;;;;;18.60;100.00;102169.00;5070134;28;20033;-72
2023/09/26 05:27:37;;;;;;;11.93;4.35;;;;;;;18.63;100.00;102168.56;5089030;28;20078;-71
2023/09/26 05:30:02;;;;;;;10.30;4.22;;;;;;;18.67;100.00;102164.34;5063530;28;20040;-72
2023/09/26 05:32:28;;;;;;;10.50;4.65;;;;;;;18.70;100.00;102158.44;5076666;28;20028;-71
2023/09/26 05:34:53;;;;;;;9.38;3.95;;;;;;;18.68;100.00;102150.50;5062409;28;20111;-71
2023/09/26 05:37:19;;;;;;;7.40;3.90;;;;;;;18.75;100.00;102158.69;5079854;28;20032;-71
2023/09/26 05:39:44;;;;;;;9.40;3.80;;;;;;;18.80;100.00;102153.38;5061723;28;20029;-71
2023/09/26 05:42:10;;;;;;;7.72;4.50;;;;;;;18.79;100.00;102154.44;5061745;28;20036;-71
2023/09/26 05:44:36;;;;;;;11.20;4.25;;;;;;;18.82;100.00;102164.09;5057464;28;20111;-71
2023/09/26 05:47:02;;;;;;;11.07;4.53;;;;;;;18.82;100.00;102166.81;5075511;28;20044;-71
2023/09/26 05:49:28;;;;;;;11.10;4.15;;;;;;;18.90;100.00;102171.97;5075744;28;20081;-71
2023/09/26 05:51:53;;;;;;;5.57;3.88;;;;;;;18.92;100.00;102175.34;5078042;28;20052;-71
2023/09/26 05:54:18;;;;;;;12.68;4.00;;;;;;;18.93;100.00;102172.38;5080388;28;20036;-71
2023/09/26 05:56:44;;;;;;;9.20;4.10;;;;;;;18.85;100.00;102155.47;5080275;28;20035;-71
2023/09/26 05:59:10;;;;;;;10.23;4.65;;;;;;;18.99;100.00;102179.66;5045997;28;20024;-71
2023/09/26 06:01:35;;;;;;;9.95;4.00;;;;;;;19.03;100.00;102182.78;5062510;28;20036;-71
2023/09/26 06:04:00;;;;;;;10.30;4.20;;;;;;;19.06;100.00;102184.25;5043490;28;20035;-70
2023/09/26 06:06:26;;;;;;;10.50;4.20;;;;;;;19.07;100.00;102180.44;5072987;28;20101;-70
2023/09/26 06:08:51;;;;;;;9.20;4.13;;;;;;;19.06;100.00;102184.25;5078926;28;20051;-70
2023/09/26 06:11:17;;;;;;;8.70;4.70;;;;;;;19.07;100.00;102188.63;5061616;28;20084;-70
2023/09/26 06:13:44;;;;;;;8.13;4.60;;;;;;;19.06;100.00;102196.00;5061551;28;20055;-70
2023/09/26 06:16:10;;;;;;;9.02;4.18;;;;;;;19.08;100.00;102199.34;5061433;28;20123;-71
2023/09/26 06:18:35;;;;;;;9.45;4.10;;;;;;;19.13;100.00;102199.50;5061504;28;20048;-70
2023/09/26 06:21:05;;;;;;;9.10;4.32;;;;;;;19.17;100.00;102200.75;5061211;28;20032;-70
2023/09/26 06:23:31;;;;;;;8.85;4.80;;;;;;;19.21;100.00;102199.22;5079832;28;20052;-70
2023/09/26 06:26:00;;;;;;;8.10;4.68;;;;;;;19.24;100.00;102196.06;5061213;28;20033;-70
2023/09/26 06:28:27;;;;;;;9.65;4.50;;;;;;;19.25;100.00;102194.16;5045055;28;20035;-70
2023/09/26 06:30:52;;;;;;;10.23;4.50;;;;;;;19.30;100.00;102196.22;5045258;28;20390;-70
2023/09/26 06:33:18;;;;;;;9.13;4.32;;;;;;;19.34;100.00;102195.56;5061693;28;20085;-70
2023/09/26 06:35:43;;;;;;;16.50;4.50;;;;;;;19.40;100.00;102185.63;5079082;28;20048;-70
2023/09/26 06:38:09;;;;;;;8.73;5.07;;;;;;;19.34;100.00;102170.16;5061581;28;20487;-70
2023/09/26 06:40:34;;;;;;;8.15;4.88;;;;;;;19.52;100.00;102186.56;5055308;28;20064;-70
2023/09/26 06:43:01;;;;;;;9.48;4.78;;;;;;;19.57;100.00;102188.59;5025797;28;20112;-71
2023/09/26 06:45:30;;;;;;;11.30;5.22;;;;;;;19.65;100.00;102194.66;5079908;28;20029;-71
2023/09/26 06:47:56;;;;;;;8.68;4.60;;;;;;;19.76;100.00;102192.22;5044790;28;20061;-70
2023/09/26 06:50:21;;;;;;;7.82;4.40;;;;;;;19.90;100.00;102207.41;5061810;28;20051;-70
2023/09/26 06:52:47;;;;;;;12.07;4.05;;;;;;;20.02;100.00;102200.13;5045368;28;20036;-69
2023/09/26 06:55:13;;;;;;;9.07;4.45;;;;;;;19.99;100.00;102181.44;5062104;28;20033;-70
2023/09/26 06:57:39;;;;;;;8.60;4.20;;;;;;;20.17;100.00;102199.75;5079452;28;20031;-70
2023/09/26 07:00:06;;;;;;;9.20;4.18;;;;;;;20.22;100.00;102205.34;5061220;28;20036;-70
2023/09/26 07:02:32;;;;;;;9.02;3.85;;;;;;;20.19;100.00;102195.69;5061383;28;20043;-70
2023/09/26 07:04:57;;;;;;;11.23;3.85;;;;;;;20.31;100.00;102200.41;5061364;28;20056;-70
2023/09/26 07:07:23;;;;;;;12.10;4.00;;;;;;;20.40;100.00;102213.53;5061671;28;20058;-70
2023/09/26 07:09:49;;;;;;;9.70;3.70;;;;;;;20.38;100.00;102209.34;5079236;28;20039;-70
2023/09/26 07:12:17;;;;;;;12.32;5.15;;;;;;;20.33;100.00;102211.94;5080298;28;20036;-70
2023/09/26 07:14:42;;;;;;;8.05;4.03;;;;;;;20.39;100.00;102216.47;5079035;28;20025;-70
2023/09/26 07:17:09;;;;;;;10.48;4.50;;;;;;;20.45;100.00;102222.94;5027562;28;20060;-70
2023/09/26 07:19:34;;;;;;;7.22;4.38;;;;;;;20.45;100.00;102215.56;5060650;28;20398;-70
2023/09/26 07:22:00;;;;;;;8.05;4.20;;;;;;;20.50;100.00;102220.38;5079107;28;20060;-70
2023/09/26 07:24:26;;;;;;;8.10;4.10;;;;;;;20.64;100.00;102208.19;5078527;28;20032;-70
2023/09/26 07:26:51;;;;;;;7.78;4.38;;;;;;;20.86;100.00;102211.22;5078820;28;20219;-71
2023/09/26 07:29:17;;;;;;;9.48;4.25;;;;;;;20.91;100.00;102211.38;5078373;28;20479;-70
2023/09/26 07:31:43;;;;;;;8.95;3.80;;;;;;;20.81;100.00;102191.97;5079842;28;20024;-70
2023/09/26 07:34:09;;;;;;;8.30;4.00;;;;;;;21.02;100.00;102205.06;5047895;28;20032;-71
2023/09/26 07:36:35;;;;;;;9.50;3.80;;;;;;;21.01;100.00;102191.63;5082345;28;20028;-70
2023/09/26 07:39:00;;;;;;;9.50;3.78;;;;;;;21.13;100.00;102210.84;5046635;28;20036;-70
2023/09/26 07:41:25;;;;;;;7.53;4.25;;;;;;;21.09;100.00;102205.84;5082765;28;20055;-71
2023/09/26 07:43:51;;;;;;;12.30;4.10;;;;;;;21.11;100.00;102208.31;5082845;28;20024;-70
2023/09/26 07:46:16;;;;;;;10.13;4.18;;;;;;;21.18;100.00;102214.50;5064948;28;20043;-70
2023/09/26 07:48:42;;;;;;;11.05;4.63;;;;;;;21.15;100.00;102214.16;5082708;28;20055;-70
2023/09/26 07:51:09;;;;;;;7.93;5.00;;;;;;;21.11;100.00;102220.09;5082588;28;20097;-70
2023/09/26 07:53:35;;;;;;;8.10;5.03;;;;;;;21.18;100.00;102220.00;5082525;28;20399;-70
2023/09/26 07:56:01;;;;;;;10.88;5.50;;;;;;;21.19;100.00;102215.34;5082714;28;20035;-70
2023/09/26 07:58:27;;;;;;;7.13;4.35;;;;;;;21.37;100.00;102207.06;5084192;28;20024;-70
2023/09/26 08:00:54;;;;;;;8.52;4.68;;;;;;;21.34;100.00;102221.19;5066491;28;20048;-70
2023/09/26 08:03:20;;;;;;;8.48;4.65;;;;;;;21.38;100.00;102221.59;5064991;28;20036;-70
2023/09/26 08:05:46;;;;;;;8.65;4.80;;;;;;;21.37;100.00;102218.03;5064526;28;20056;-70
2023/09/26 08:08:11;;;;;;;8.55;4.68;;;;;;;21.34;100.00;102222.06;5082674;28;20035;-71
2023/09/26 08:10:40;;;;;;;8.82;4.50;;;;;;;21.20;100.00;102226.06;5064142;28;20028;-70
2023/09/26 08:13:06;;;;;;;11.80;4.50;;;;;;;21.05;100.00;102231.97;5046845;28;20025;-70
2023/09/26 08:15:35;;;;;;;11.60;5.25;;;;;;;21.09;100.00;102237.81;5043888;28;20025;-70
2023/09/26 08:18:04;;;;;;;10.85;4.90;;;;;;;21.03;100.00;102239.59;5058031;28;20503;-70
2023/09/26 08:20:30;;;;;;;9.02;5.07;;;;;;;20.97;100.00;102231.50;5087407;28;20051;-70
2023/09/26 08:22:56;;;;;;;14.68;5.22;;;;;;;20.88;100.00;102247.41;5064548;28;20396;-71
2023/09/26 08:25:21;;;;;;;12.10;5.53;;;;;;;20.83;100.00;102236.34;5082457;28;20048;-70
2023/09/26 08:27:47;;;;;;;10.07;6.13;;;;;;;20.86;100.00;102239.44;5063609;28;20033;-70
2023/09/26 08:30:12;;;;;;;9.82;5.80;;;;;;;20.86;100.00;102236.72;5061095;28;20445;-70
2023/09/26 08:32:39;;;;;;;9.60;5.75;;;;;;;20.83;100.00;102228.97;5078678;28;20032;-70
2023/09/26 08:35:06;;;;;;;14.88;5.95;;;;;;;20.73;100.00;102246.97;5082500;28;20023;-71
2023/09/26 08:37:33;;;;;;;9.93;5.63;;;;;;;20.75;100.00;102250.31;5081720;28;20052;-70
2023/09/26 08:39:59;;;;;;;10.05;5.97;;;;;;;20.84;100.00;102244.31;5082591;28;20427;-70
2023/09/26 08:42:27;;;;;;;9.15;5.80;;;;;;;20.84;100.00;102240.75;5072582;28;20043;-70
2023/09/26 08:44:55;;;;;;;9.30;5.72;;;;;;;20.92;100.00;102234.91;5083574;28;20133;-71
2023/09/26 08:47:24;;;;;;;12.02;5.57;;;;;;;20.93;100.00;102244.00;5081883;28;20029;-70
2023/09/26 08:49:54;;;;;;;7.30;5.32;;;;;;;20.92;100.00;102240.38;5081878;28;20529;-70
2023/09/26 08:52:25;;;;;;;9.80;5.60;;;;;;;20.90;100.00;102245.28;5064237;28;20032;-71
2023/09/26 08:54:51;;;;;;;7.75;5.00;;;;;;;20.82;100.00;102230.00;5081904;28;20078;-70
2023/09/26 08:57:19;;;;;;;8.48;5.50;;;;;;;20.88;100.00;102252.88;5063860;28;20028;-71
2023/09/26 08:59:47;;;;;;;9.00;5.22;;;;;;;20.89;100.00;102224.44;5063339;28;20060;-70
2023/09/26 09:02:12;;;;;;;11.25;5.30;;;;;;;21.02;100.00;102240.66;5081772;28;20040;-70
2023/09/26 09:04:43;;;;;;;10.20;5.53;;;;;;;21.05;99.81;102225.69;5081164;28;20052;-71
2023/09/26 09:07:10;;;;;;;10.27;5.20;;;;;;;21.13;99.30;102238.22;5080214;28;20159;-70
2023/09/26 09:09:36;;;;;;;9.27;5.40;;;;;;;21.22;98.97;102218.44;5059781;28;20453;-70
2023/09/26 09:12:02;;;;;;;8.45;5.00;;;;;;;21.44;98.23;102232.44;5071138;28;20033;-71
2023/09/26 09:14:36;;;;;;;11.20;4.90;;;;;;;21.63;97.41;102235.06;5073628;28;20044;-71
2023/09/26 09:17:01;;;;;;;9.25;5.10;;;;;;;21.65;96.98;102211.81;5063991;28;20506;-71
2023/09/26 09:19:50;;;;;;;8.73;4.63;;;;;;;21.88;96.55;102221.09;5028336;28;20020;-70
2023/09/26 09:22:18;;;;;;;9.00;5.13;;;;;;;21.89;95.88;102222.78;5061957;28;20048;-70
2023/09/26 09:24:53;;;;;;;9.23;4.72;;;;;;;21.86;95.61;102221.34;5061950;28;20107;-70
2023/09/26 09:27:29;;;;;;;10.70;5.40;;;;;;;21.94;94.46;102223.72;5081074;28;20035;-70
2023/09/26 09:30:08;;;;;;;9.82;5.70;;;;;;;21.78;94.74;102228.00;5080941;28;20086;-70
2023/09/26 09:32:36;;;;;;;8.07;5.50;;;;;;;21.57;95.03;102218.50;5079837;28;20605;-70
2023/09/26 09:35:03;;;;;;;9.80;4.93;;;;;;;21.87;93.89;102233.97;5044006;28;20028;-71
2023/09/26 09:37:29;;;;;;;8.77;5.18;;;;;;;21.87;94.23;102235.88;5061615;28;20029;-70
2023/09/26 09:39:54;;;;;;;6.82;4.90;;;;;;;21.93;93.67;102223.97;5079381;28;20055;-71
2023/09/26 09:42:20;;;;;;;8.50;5.57;;;;;;;21.84;93.70;102214.44;5044551;28;20039;-71
2023/09/26 09:44:46;;;;;;;6.00;5.15;;;;;;;21.88;93.62;102230.16;5061939;28;20039;-70
2023/09/26 09:47:19;;;;;;;7.88;5.63;;;;;;;21.87;93.57;102228.50;5063148;28;20036;-71
2023/09/26 09:49:47;;;;;;;12.68;4.80;;;;;;;21.90;93.56;102229.94;5081105;28;20036;-71
2023/09/26 09:52:16;;;;;;;10.50;5.00;;;;;;;21.90;93.75;102219.78;5063316;28;20127;-70
2023/09/26 09:54:45;;;;;;;9.55;4.70;;;;;;;21.83;93.86;102212.78;5080497;28;20081;-71
2023/09/26 09:57:17;;;;;;;8.57;5.43;;;;;;;22.00;93.09;102227.41;5080940;28;20032;-70
2023/09/26 09:59:45;;;;;;;6.38;4.13;;;;;;;22.16;92.21;102223.13;5080844;28;20028;-70
2023/09/26 10:02:17;;;;;;;9.45;4.78;;;;;;;22.19;91.95;102211.69;5062989;28;20040;-71
2023/09/26 10:04:47;;;;;;;8.88;5.28;;;;;;;22.26;91.78;102224.16;5079188;28;20047;-70
2023/09/26 10:07:12;;;;;;;9.40;5.07;;;;;;;22.21;91.75;102228.69;5061494;28;20081;-70
2023/09/26 10:09:40;;;;;;;9.85;5.10;;;;;;;22.16;91.91;102225.88;5080248;28;20414;-71
2023/09/26 10:12:07;;;;;;;10.00;4.82;;;;;;;22.14;92.10;102227.97;5060360;28;20025;-71
2023/09/26 10:14:32;;;;;;;8.13;4.22;;;;;;;22.07;92.14;102227.28;5065094;28;20039;-71
2023/09/26 10:16:59;;;;;;;8.65;4.35;;;;;;;22.06;91.37;102215.47;5063378;28;20064;-70
2023/09/26 10:19:27;;;;;;;6.03;4.00;;;;;;;21.89;91.38;102198.13;5062153;28;20548;-71
2023/09/26 10:21:52;;;;;;;6.03;3.83;;;;;;;21.87;91.55;102219.44;5060910;28;20039;-70
2023/09/26 10:24:21;;;;;;;6.70;3.72;;;;;;;21.93;90.96;102213.84;5080217;28;20032;-71
2023/09/26 10:26:48;;;;;;;6.18;3.28;;;;;;;21.96;90.61;102229.81;5080027;28;20021;-70
2023/09/26 10:29:20;;;;;;;6.43;3.42;;;;;;;21.85;90.96;102227.06;5079478;28;20052;-71
2023/09/26 10:31:53;;;;;;;9.90;3.50;;;;;;;21.86;90.61;102228.75;5078201;28;20028;-70
2023/09/26 10:34:28;;;;;;;7.00;3.53;;;;;;;21.96;90.05;102228.97;5061965;28;20020;-70
2023/09/26 10:36:55;;;;;;;6.75;3.65;;;;;;;21.91;89.91;102226.94;5043294;28;20101;-70
2023/09/26 10:39:35;;;;;;;6.50;3.47;;;;;;;21.99;89.41;102225.75;5058071;28;20024;-71
2023/09/26 10:42:09;;;;;;;7.80;3.40;;;;;;;22.16;88.46;102232.19;5077575;28;20032;-70
2023/09/26 10:44:35;;;;;;;;;;;;;;;22.17;88.40;102227.53;5061045;28;20020;-70
2023/09/26 10:47:04;;;;;;;10.52;3.50;;;;;;;22.22;88.17;102236.69;5078582;28;19954;-70
2023/09/26 10:49:30;;;;;;;5.30;3.33;;;;;;;22.22;88.13;102235.88;5078225;28;20033;-70
2023/09/26 10:51:56;;;;;;;5.65;3.38;;;;;;;22.26;87.75;102232.38;5059414;28;20025;-70
2023/09/26 10:54:21;;;;;;;4.55;3.40;;;;;;;22.32;86.45;102219.63;5060038;28;20508;-70
2023/09/26 10:56:50;;;;;;;6.05;3.38;;;;;;;22.27;86.10;102225.00;5027076;28;20086;-70
2023/09/26 10:59:17;;;;;;;4.88;3.00;;;;;;;22.41;85.54;102218.13;5078193;28;20021;-70
2023/09/26 11:01:45;;;;;;;9.07;3.80;;;;;;;22.46;83.99;102215.50;5079359;28;20099;-71
2023/09/26 11:04:11;;;;;;;6.03;3.17;;;;;;;22.60;82.88;102209.72;5061233;28;20114;-70
2023/09/26 11:06:37;;;;;;;8.32;3.60;;;;;;;22.69;82.02;102202.78;5044392;28;20028;-70
2023/09/26 11:09:03;;;;;;;7.07;3.40;;;;;;;22.82;81.47;102204.38;5061564;28;20028;-71
2023/09/26 11:11:29;;;;;;;5.20;3.70;;;;;;;22.82;80.58;102193.41;5077038;28;20056;-70
2023/09/26 11:13:55;;;;;;;4.72;2.70;;;;;;;22.90;80.04;102196.56;5082909;28;20021;-71